createdAt,value
2018-05-02T00:00:09.259Z,0.00
2018-05-02T00:01:09.212Z,0.00
2018-05-02T00:02:09.170Z,0.00
2018-05-02T00:03:09.119Z,0.00
2018-05-02T00:04:09.072Z,0.00
2018-05-02T00:05:09.029Z,0.00
2018-05-02T00:06:08.979Z,0.00
2018-05-02T00:07:08.932Z,0.00
2018-05-02T00:08:08.886Z,0.00
2018-05-02T00:09:08.839Z,0.00
2018-05-02T00:10:08.792Z,0.00
2018-05-02T00:11:08.748Z,0.00
2018-05-02T00:12:08.700Z,0.00
2018-05-02T00:13:08.652Z,0.00
2018-05-02T00:14:08.606Z,0.00
2018-05-02T00:15:08.563Z,0.00
2018-05-02T00:16:08.514Z,0.00
2018-05-02T00:17:08.466Z,0.00
2018-05-02T00:18:08.450Z,0.00
2018-05-02T00:19:08.373Z,0.00
2018-05-02T00:20:08.327Z,0.00
2018-05-02T00:21:08.283Z,0.00
2018-05-02T00:22:08.233Z,0.00
2018-05-02T00:23:08.186Z,0.00
2018-05-02T00:24:08.144Z,0.00
2018-05-02T00:25:08.092Z,0.00
2018-05-02T00:26:08.051Z,0.00
2018-05-02T00:27:08.006Z,0.00
2018-05-02T00:28:07.957Z,0.00
2018-05-02T00:29:07.905Z,0.00
2018-05-02T00:30:07.859Z,0.00
2018-05-02T00:31:07.814Z,0.00
2018-05-02T00:32:07.766Z,0.00
2018-05-02T00:33:07.719Z,0.00
2018-05-02T00:34:07.751Z,0.00
2018-05-02T00:35:07.676Z,0.00
2018-05-02T00:36:07.580Z,0.00
2018-05-02T00:37:07.532Z,0.00
2018-05-02T00:38:07.486Z,0.00
2018-05-02T00:39:07.443Z,0.00
2018-05-02T00:40:07.392Z,0.00
2018-05-02T00:41:07.345Z,0.00
2018-05-02T00:42:07.299Z,0.00
2018-05-02T00:43:07.253Z,0.00
2018-05-02T00:44:07.206Z,0.00
2018-05-02T00:45:07.158Z,0.00
2018-05-02T00:46:07.111Z,0.00
2018-05-02T00:47:07.065Z,0.00
2018-05-02T00:48:07.019Z,0.00
2018-05-02T00:49:06.971Z,0.00
2018-05-02T00:50:06.925Z,0.00
2018-05-02T00:51:06.878Z,0.00
2018-05-02T00:52:06.831Z,0.00
2018-05-02T00:53:06.790Z,0.00
2018-05-02T00:54:06.738Z,0.00
2018-05-02T00:55:06.691Z,0.00
2018-05-02T00:56:06.644Z,0.00
2018-05-02T00:57:06.598Z,0.00
2018-05-02T00:58:06.554Z,0.00
2018-05-02T00:59:06.504Z,0.00
2018-05-02T01:00:06.457Z,0.00
2018-05-02T01:01:06.410Z,0.00
2018-05-02T01:02:06.363Z,0.00
2018-05-02T01:03:06.321Z,0.00
2018-05-02T01:04:06.270Z,0.00
2018-05-02T01:05:06.222Z,0.00
2018-05-02T01:06:06.181Z,0.00
2018-05-02T01:07:06.129Z,0.00
2018-05-02T01:08:06.083Z,0.00
2018-05-02T01:09:06.035Z,0.00
2018-05-02T01:10:05.988Z,0.00
2018-05-02T01:11:05.942Z,0.00
2018-05-02T01:12:05.895Z,0.00
2018-05-02T01:13:05.847Z,0.00
2018-05-02T01:14:05.801Z,0.00
2018-05-02T01:15:05.754Z,0.00
2018-05-02T01:16:05.708Z,0.00
2018-05-02T01:17:05.664Z,0.00
2018-05-02T01:18:05.615Z,0.00
2018-05-02T01:19:05.567Z,0.00
2018-05-02T01:20:05.520Z,0.00
2018-05-02T01:21:05.479Z,0.00
2018-05-02T01:22:05.428Z,0.00
2018-05-02T01:23:05.379Z,0.00
2018-05-02T01:24:05.333Z,0.00
2018-05-02T01:25:05.288Z,0.00
2018-05-02T01:26:05.238Z,0.00
2018-05-02T01:27:05.192Z,0.00
2018-05-02T01:28:05.144Z,0.00
2018-05-02T01:29:05.099Z,0.00
2018-05-02T01:30:05.051Z,0.00
2018-05-02T01:31:05.009Z,0.00
2018-05-02T01:32:04.957Z,0.00
2018-05-02T01:33:04.909Z,0.00
2018-05-02T01:34:04.902Z,0.00
2018-05-02T01:35:04.816Z,0.00
2018-05-02T01:36:04.769Z,0.00
2018-05-02T01:37:04.721Z,0.00
2018-05-02T01:38:04.675Z,0.00
2018-05-02T01:39:04.628Z,0.00
2018-05-02T01:40:04.582Z,0.00
2018-05-02T01:41:04.534Z,0.00
2018-05-02T01:42:04.488Z,0.00
2018-05-02T01:43:04.450Z,0.00
2018-05-02T01:44:04.394Z,0.00
2018-05-02T01:45:04.346Z,0.00
2018-05-02T01:46:04.299Z,0.00
2018-05-02T01:47:04.252Z,0.00
2018-05-02T01:48:04.214Z,0.00
2018-05-02T01:49:04.157Z,0.00
2018-05-02T01:50:04.111Z,0.00
2018-05-02T01:51:04.091Z,0.00
2018-05-02T01:52:04.017Z,0.00
2018-05-02T01:53:03.970Z,0.00
2018-05-02T01:54:03.926Z,0.00
2018-05-02T01:55:03.878Z,0.00
2018-05-02T01:56:03.830Z,0.00
2018-05-02T01:57:03.793Z,0.00
2018-05-02T01:58:03.736Z,0.00
2018-05-02T01:59:03.689Z,0.00
2018-05-02T02:00:03.642Z,0.00
2018-05-02T02:01:03.593Z,0.00
2018-05-02T02:02:03.547Z,0.00
2018-05-02T02:03:03.508Z,0.00
2018-05-02T02:04:03.453Z,0.00
2018-05-02T02:05:03.405Z,0.00
2018-05-02T02:06:03.358Z,0.00
2018-05-02T02:07:03.311Z,0.00
2018-05-02T02:08:03.264Z,0.00
2018-05-02T02:09:03.221Z,0.00
2018-05-02T02:10:03.172Z,0.00
2018-05-02T02:11:03.123Z,0.00
2018-05-02T02:12:03.076Z,0.00
2018-05-02T02:13:03.028Z,0.00
2018-05-02T02:14:02.981Z,0.00
2018-05-02T02:15:02.934Z,0.00
2018-05-02T02:16:02.891Z,0.00
2018-05-02T02:17:02.840Z,0.00
2018-05-02T02:18:02.793Z,0.00
2018-05-02T02:19:02.751Z,0.00
2018-05-02T02:20:02.699Z,0.00
2018-05-02T02:21:02.651Z,0.00
2018-05-02T02:22:02.604Z,0.00
2018-05-02T02:23:02.557Z,0.00
2018-05-02T02:24:02.511Z,0.00
2018-05-02T02:25:02.467Z,0.00
2018-05-02T02:26:02.415Z,0.00
2018-05-02T02:27:02.374Z,0.00
2018-05-02T02:28:02.321Z,0.00
2018-05-02T02:29:02.274Z,0.00
2018-05-02T02:30:02.227Z,0.00
2018-05-02T02:31:02.182Z,0.00
2018-05-02T02:32:02.233Z,0.00
2018-05-02T02:33:02.085Z,0.00
2018-05-02T02:34:02.129Z,0.00
2018-05-02T02:35:01.992Z,0.00
2018-05-02T02:36:01.944Z,0.00
2018-05-02T02:37:01.897Z,0.00
2018-05-02T02:38:01.849Z,0.00
2018-05-02T02:39:01.805Z,0.00
2018-05-02T02:40:01.757Z,0.00
2018-05-02T02:41:01.706Z,0.00
2018-05-02T02:42:01.660Z,0.00
2018-05-02T02:43:01.620Z,0.00
2018-05-02T02:44:01.567Z,0.00
2018-05-02T02:45:01.517Z,0.00
2018-05-02T02:46:01.470Z,0.00
2018-05-02T02:47:01.423Z,0.00
2018-05-02T02:48:01.378Z,0.00
2018-05-02T02:49:01.327Z,0.00
2018-05-02T02:50:01.281Z,0.00
2018-05-02T02:51:01.233Z,0.00
2018-05-02T02:52:01.186Z,0.00
2018-05-02T02:53:01.138Z,0.00
2018-05-02T02:54:01.091Z,0.00
2018-05-02T02:55:01.044Z,0.00
2018-05-02T02:56:00.997Z,0.00
2018-05-02T02:57:00.949Z,0.00
2018-05-02T02:58:00.904Z,0.00
2018-05-02T02:59:00.855Z,0.00
2018-05-02T03:00:00.807Z,0.00
2018-05-02T03:01:00.759Z,0.00
2018-05-02T03:02:00.712Z,0.00
2018-05-02T03:03:00.665Z,0.00
2018-05-02T03:04:00.618Z,0.00
2018-05-02T03:05:00.569Z,0.00
2018-05-02T03:06:00.522Z,0.00
2018-05-02T03:07:00.477Z,0.00
2018-05-02T03:08:00.428Z,0.00
2018-05-02T03:09:00.379Z,0.00
2018-05-02T03:10:00.332Z,0.00
2018-05-02T03:11:00.285Z,0.00
2018-05-02T03:12:00.238Z,0.00
2018-05-02T03:13:00.190Z,0.00
2018-05-02T03:14:00.141Z,0.00
2018-05-02T03:15:00.095Z,0.00
2018-05-02T03:16:00.052Z,0.00
2018-05-02T03:17:00.002Z,0.00
2018-05-02T03:17:59.956Z,0.00
2018-05-02T03:18:59.904Z,0.00
2018-05-02T03:19:59.858Z,0.00
2018-05-02T03:20:59.809Z,0.00
2018-05-02T03:21:59.761Z,0.00
2018-05-02T03:22:59.715Z,0.00
2018-05-02T03:23:59.668Z,0.00
2018-05-02T03:24:59.619Z,0.00
2018-05-02T03:25:59.572Z,0.00
2018-05-02T03:26:59.569Z,0.00
2018-05-02T03:27:59.477Z,0.00
2018-05-02T03:28:59.429Z,0.00
2018-05-02T03:29:59.382Z,0.00
2018-05-02T03:30:59.344Z,0.00
2018-05-02T03:31:59.287Z,5.63
2018-05-02T03:32:59.239Z,5.63
2018-05-02T03:33:59.193Z,5.63
2018-05-02T03:34:59.145Z,5.63
2018-05-02T03:35:59.098Z,5.63
2018-05-02T03:36:59.049Z,5.63
2018-05-02T03:37:59.002Z,5.63
2018-05-02T03:38:58.955Z,5.63
2018-05-02T03:39:58.908Z,11.25
2018-05-02T03:40:58.859Z,11.25
2018-05-02T03:41:58.817Z,11.25
2018-05-02T03:42:58.764Z,11.25
2018-05-02T03:43:58.717Z,11.25
2018-05-02T03:44:58.669Z,16.88
2018-05-02T03:45:58.622Z,16.88
2018-05-02T03:46:58.575Z,16.88
2018-05-02T03:47:58.527Z,16.88
2018-05-02T03:48:58.479Z,22.50
2018-05-02T03:49:58.431Z,22.50
2018-05-02T03:50:58.385Z,22.50
2018-05-02T03:51:58.337Z,22.50
2018-05-02T03:52:58.382Z,28.13
2018-05-02T03:53:58.242Z,28.13
2018-05-02T03:54:58.194Z,28.13
2018-05-02T03:55:58.147Z,33.75
2018-05-02T03:56:58.099Z,33.75
2018-05-02T03:57:58.054Z,33.75
2018-05-02T03:58:58.005Z,39.38
2018-05-02T03:59:57.958Z,39.38
2018-05-02T04:00:57.910Z,39.38
2018-05-02T04:01:57.867Z,45.00
2018-05-02T04:02:57.816Z,45.00
2018-05-02T04:03:57.768Z,50.63
2018-05-02T04:04:57.720Z,50.63
2018-05-02T04:05:57.674Z,50.63
2018-05-02T04:06:57.626Z,56.25
2018-05-02T04:07:57.579Z,56.25
2018-05-02T04:08:57.531Z,56.25
2018-05-02T04:09:57.484Z,56.25
2018-05-02T04:10:57.440Z,56.25
2018-05-02T04:11:57.390Z,61.88
2018-05-02T04:12:57.342Z,61.88
2018-05-02T04:13:57.295Z,61.88
2018-05-02T04:14:57.248Z,67.50
2018-05-02T04:15:57.202Z,67.50
2018-05-02T04:16:57.154Z,67.50
2018-05-02T04:17:57.107Z,73.13
2018-05-02T04:18:57.060Z,73.13
2018-05-02T04:19:57.015Z,73.13
2018-05-02T04:20:56.965Z,73.13
2018-05-02T04:21:56.918Z,78.75
2018-05-02T04:22:56.872Z,78.75
2018-05-02T04:23:56.832Z,78.75
2018-05-02T04:24:56.779Z,84.38
2018-05-02T04:25:56.730Z,84.38
2018-05-02T04:26:56.684Z,90.00
2018-05-02T04:27:56.637Z,95.63
2018-05-02T04:28:56.640Z,95.63
2018-05-02T04:29:56.543Z,95.63
2018-05-02T04:30:56.497Z,101.25
2018-05-02T04:31:56.450Z,101.25
2018-05-02T04:32:56.403Z,101.25
2018-05-02T04:33:56.359Z,101.25
2018-05-02T04:34:56.309Z,101.25
2018-05-02T04:35:56.264Z,101.25
2018-05-02T04:36:56.216Z,106.88
2018-05-02T04:37:56.169Z,106.88
2018-05-02T04:38:56.122Z,112.50
2018-05-02T04:39:56.076Z,112.50
2018-05-02T04:40:56.029Z,118.13
2018-05-02T04:41:55.982Z,118.13
2018-05-02T04:42:55.935Z,123.75
2018-05-02T04:43:55.889Z,123.75
2018-05-02T04:44:55.842Z,118.13
2018-05-02T04:45:55.795Z,118.13
2018-05-02T04:46:55.748Z,118.13
2018-05-02T04:47:55.703Z,118.13
2018-05-02T04:48:55.655Z,118.13
2018-05-02T04:49:55.614Z,118.13
2018-05-02T04:50:55.562Z,112.50
2018-05-02T04:51:55.516Z,112.50
2018-05-02T04:52:55.468Z,112.50
2018-05-02T04:53:55.422Z,118.13
2018-05-02T04:54:55.382Z,112.50
2018-05-02T04:55:55.337Z,112.50
2018-05-02T04:56:55.282Z,112.50
2018-05-02T04:57:55.236Z,112.50
2018-05-02T04:58:55.190Z,112.50
2018-05-02T04:59:55.195Z,112.50
2018-05-02T05:00:55.104Z,118.13
2018-05-02T05:01:55.050Z,123.75
2018-05-02T05:02:55.004Z,129.38
2018-05-02T05:03:54.957Z,135.00
2018-05-02T05:04:54.910Z,146.25
2018-05-02T05:05:54.863Z,157.50
2018-05-02T05:06:54.817Z,163.13
2018-05-02T05:07:54.770Z,168.75
2018-05-02T05:08:54.724Z,174.38
2018-05-02T05:09:54.677Z,174.38
2018-05-02T05:10:54.632Z,180.00
2018-05-02T05:11:54.585Z,236.25
2018-05-02T05:12:54.540Z,247.50
2018-05-02T05:13:54.491Z,213.75
2018-05-02T05:14:54.445Z,196.88
2018-05-02T05:15:54.399Z,202.50
2018-05-02T05:16:54.351Z,202.50
2018-05-02T05:17:54.305Z,213.75
2018-05-02T05:18:54.260Z,219.38
2018-05-02T05:19:54.251Z,236.25
2018-05-02T05:20:54.167Z,270.00
2018-05-02T05:21:54.121Z,309.38
2018-05-02T05:22:54.076Z,331.88
2018-05-02T05:23:54.029Z,371.25
2018-05-02T05:24:53.982Z,551.25
2018-05-02T05:25:53.936Z,725.63
2018-05-02T05:26:53.891Z,540.00
2018-05-02T05:27:53.845Z,596.25
2018-05-02T05:28:53.799Z,421.88
2018-05-02T05:29:53.754Z,438.75
2018-05-02T05:30:53.709Z,466.88
2018-05-02T05:31:53.664Z,360.00
2018-05-02T05:32:53.618Z,331.88
2018-05-02T05:33:53.573Z,320.63
2018-05-02T05:34:53.529Z,315.00
2018-05-02T05:35:53.484Z,309.38
2018-05-02T05:36:53.438Z,320.63
2018-05-02T05:37:53.395Z,326.25
2018-05-02T05:38:53.349Z,331.88
2018-05-02T05:39:53.306Z,331.88
2018-05-02T05:40:53.262Z,326.25
2018-05-02T05:41:53.216Z,382.50
2018-05-02T05:42:53.171Z,326.25
2018-05-02T05:43:53.127Z,315.00
2018-05-02T05:44:53.138Z,309.38
2018-05-02T05:45:53.038Z,309.38
2018-05-02T05:46:52.993Z,320.63
2018-05-02T05:47:52.950Z,376.88
2018-05-02T05:48:52.904Z,331.88
2018-05-02T05:49:52.864Z,337.50
2018-05-02T05:50:52.817Z,343.13
2018-05-02T05:51:52.773Z,360.00
2018-05-02T05:52:52.728Z,376.88
2018-05-02T05:53:52.747Z,410.63
2018-05-02T05:54:52.643Z,388.13
2018-05-02T05:55:52.596Z,382.50
2018-05-02T05:56:52.551Z,405.00
2018-05-02T05:57:52.507Z,399.38
2018-05-02T05:58:52.464Z,410.63
2018-05-02T05:59:52.420Z,461.25
2018-05-02T06:00:52.472Z,461.25
2018-05-02T06:01:52.333Z,405.00
2018-05-02T06:02:52.286Z,410.63
2018-05-02T06:03:52.243Z,433.13
2018-05-02T06:04:52.198Z,416.25
2018-05-02T06:05:52.155Z,427.50
2018-05-02T06:06:52.138Z,444.38
2018-05-02T06:07:52.067Z,427.50
2018-05-02T06:08:52.023Z,427.50
2018-05-02T06:09:51.981Z,405.00
2018-05-02T06:10:51.934Z,427.50
2018-05-02T06:11:51.892Z,438.75
2018-05-02T06:12:51.852Z,478.13
2018-05-02T06:13:51.806Z,708.75
2018-05-02T06:14:51.761Z,523.13
2018-05-02T06:15:51.718Z,500.63
2018-05-02T06:16:51.728Z,871.88
2018-05-02T06:17:51.631Z,534.38
2018-05-02T06:18:51.620Z,562.50
2018-05-02T06:19:51.544Z,630.00
2018-05-02T06:20:51.501Z,562.50
2018-05-02T06:21:51.458Z,596.25
2018-05-02T06:22:51.415Z,579.38
2018-05-02T06:23:51.373Z,585.00
2018-05-02T06:24:51.329Z,596.25
2018-05-02T06:25:51.287Z,590.63
2018-05-02T06:26:51.243Z,562.50
2018-05-02T06:27:51.202Z,596.25
2018-05-02T06:28:51.158Z,663.75
2018-05-02T06:29:51.115Z,646.88
2018-05-02T06:30:51.074Z,635.63
2018-05-02T06:31:51.033Z,888.75
2018-05-02T06:32:51.040Z,556.88
2018-05-02T06:33:50.947Z,607.50
2018-05-02T06:34:50.904Z,596.25
2018-05-02T06:35:50.864Z,556.88
2018-05-02T06:36:50.819Z,585.00
2018-05-02T06:37:50.895Z,641.25
2018-05-02T06:38:50.738Z,686.25
2018-05-02T06:39:50.694Z,601.88
2018-05-02T06:40:50.650Z,658.13
2018-05-02T06:41:50.609Z,601.88
2018-05-02T06:42:50.568Z,540.00
2018-05-02T06:43:50.527Z,590.63
2018-05-02T06:44:50.487Z,641.25
2018-05-02T06:45:50.443Z,787.50
2018-05-02T06:46:50.401Z,714.38
2018-05-02T06:47:50.360Z,618.75
2018-05-02T06:48:50.317Z,686.25
2018-05-02T06:49:50.277Z,607.50
2018-05-02T06:50:50.240Z,753.75
2018-05-02T06:51:50.196Z,601.88
2018-05-02T06:52:50.152Z,669.38
2018-05-02T06:53:50.112Z,590.63
2018-05-02T06:54:50.070Z,630.00
2018-05-02T06:55:50.029Z,669.38
2018-05-02T06:56:49.988Z,613.13
2018-05-02T06:57:49.947Z,658.13
2018-05-02T06:58:49.906Z,669.38
2018-05-02T06:59:49.865Z,641.25
2018-05-02T07:00:49.863Z,691.88
2018-05-02T07:01:49.785Z,703.13
2018-05-02T07:02:49.742Z,770.63
2018-05-02T07:03:49.701Z,742.50
2018-05-02T07:04:49.659Z,832.50
2018-05-02T07:05:49.618Z,804.38
2018-05-02T07:06:49.577Z,731.25
2018-05-02T07:07:49.537Z,849.38
2018-05-02T07:08:49.499Z,798.75
2018-05-02T07:09:49.455Z,691.88
2018-05-02T07:10:49.415Z,736.88
2018-05-02T07:11:49.377Z,855.00
2018-05-02T07:12:49.346Z,759.38
2018-05-02T07:13:49.293Z,883.13
2018-05-02T07:14:49.253Z,1260.00
2018-05-02T07:15:49.213Z,1096.88
2018-05-02T07:16:49.172Z,911.25
2018-05-02T07:17:49.131Z,849.38
2018-05-02T07:18:49.092Z,911.25
2018-05-02T07:19:49.053Z,922.50
2018-05-02T07:20:49.012Z,821.25
2018-05-02T07:21:48.972Z,922.50
2018-05-02T07:22:48.933Z,961.88
2018-05-02T07:23:48.894Z,905.63
2018-05-02T07:24:48.855Z,928.13
2018-05-02T07:25:48.814Z,1080.00
2018-05-02T07:26:48.776Z,1068.75
2018-05-02T07:27:48.739Z,1091.25
2018-05-02T07:28:48.698Z,1372.50
2018-05-02T07:29:48.659Z,1029.38
2018-05-02T07:30:48.620Z,866.25
2018-05-02T07:31:48.582Z,916.88
2018-05-02T07:32:48.740Z,810.00
2018-05-02T07:33:48.505Z,933.75
2018-05-02T07:34:48.469Z,821.25
2018-05-02T07:35:48.430Z,1260.00
2018-05-02T07:36:48.393Z,1749.38
2018-05-02T07:37:48.354Z,911.25
2018-05-02T07:38:48.317Z,860.63
2018-05-02T07:39:48.280Z,888.75
2018-05-02T07:40:48.243Z,731.25
2018-05-02T07:41:48.210Z,1113.75
2018-05-02T07:42:48.168Z,787.50
2018-05-02T07:43:48.135Z,781.88
2018-05-02T07:44:48.192Z,810.00
2018-05-02T07:45:48.055Z,849.38
2018-05-02T07:46:48.019Z,967.50
2018-05-02T07:47:47.982Z,871.88
2018-05-02T07:48:47.944Z,1186.88
2018-05-02T07:49:47.908Z,990.00
2018-05-02T07:50:47.870Z,849.38
2018-05-02T07:51:47.838Z,1119.38
2018-05-02T07:52:47.795Z,1153.13
2018-05-02T07:53:47.759Z,928.13
2018-05-02T07:54:47.722Z,1080.00
2018-05-02T07:55:47.686Z,1018.13
2018-05-02T07:56:47.649Z,950.63
2018-05-02T07:57:47.613Z,804.38
2018-05-02T07:58:47.579Z,905.63
2018-05-02T07:59:47.542Z,883.13
2018-05-02T08:00:47.505Z,866.25
2018-05-02T08:01:47.469Z,871.88
2018-05-02T08:02:47.436Z,849.38
2018-05-02T08:03:47.398Z,900.00
2018-05-02T08:04:47.365Z,933.75
2018-05-02T08:05:47.334Z,1080.00
2018-05-02T08:06:47.290Z,1350.00
2018-05-02T08:07:47.259Z,961.88
2018-05-02T08:08:47.219Z,956.25
2018-05-02T08:09:47.183Z,877.50
2018-05-02T08:10:47.148Z,1260.00
2018-05-02T08:11:47.113Z,787.50
2018-05-02T08:12:47.077Z,866.25
2018-05-02T08:13:47.041Z,748.13
2018-05-02T08:14:47.006Z,821.25
2018-05-02T08:15:46.971Z,742.50
2018-05-02T08:16:46.939Z,781.88
2018-05-02T08:17:46.901Z,765.00
2018-05-02T08:18:46.867Z,793.13
2018-05-02T08:19:46.829Z,736.88
2018-05-02T08:20:46.792Z,748.13
2018-05-02T08:21:46.764Z,725.63
2018-05-02T08:22:46.721Z,708.75
2018-05-02T08:23:46.685Z,866.25
2018-05-02T08:24:46.651Z,1288.13
2018-05-02T08:25:46.613Z,1501.88
2018-05-02T08:26:46.578Z,1271.25
2018-05-02T08:27:46.541Z,1068.75
2018-05-02T08:28:46.507Z,1305.00
2018-05-02T08:29:46.477Z,832.50
2018-05-02T08:30:46.437Z,736.88
2018-05-02T08:31:46.407Z,843.75
2018-05-02T08:32:46.439Z,1012.50
2018-05-02T08:33:46.336Z,843.75
2018-05-02T08:34:46.302Z,973.13
2018-05-02T08:35:46.268Z,753.75
2018-05-02T08:36:46.234Z,956.25
2018-05-02T08:37:46.201Z,781.88
2018-05-02T08:38:46.173Z,984.38
2018-05-02T08:39:46.133Z,765.00
2018-05-02T08:40:46.099Z,928.13
2018-05-02T08:41:46.065Z,720.00
2018-05-02T08:42:46.032Z,939.38
2018-05-02T08:43:45.998Z,843.75
2018-05-02T08:44:45.963Z,894.38
2018-05-02T08:45:45.929Z,826.88
2018-05-02T08:46:45.897Z,708.75
2018-05-02T08:47:45.863Z,815.63
2018-05-02T08:48:45.829Z,703.13
2018-05-02T08:49:45.797Z,736.88
2018-05-02T08:50:45.766Z,596.25
2018-05-02T08:51:45.734Z,579.38
2018-05-02T08:52:45.696Z,540.00
2018-05-02T08:53:45.663Z,556.88
2018-05-02T08:54:45.630Z,686.25
2018-05-02T08:55:45.597Z,540.00
2018-05-02T08:56:45.562Z,568.13
2018-05-02T08:57:45.531Z,528.75
2018-05-02T08:58:45.594Z,427.50
2018-05-02T08:59:45.460Z,376.88
2018-05-02T09:00:45.425Z,331.88
2018-05-02T09:01:45.398Z,309.38
2018-05-02T09:02:45.355Z,303.75
2018-05-02T09:03:45.407Z,303.75
2018-05-02T09:04:45.285Z,309.38
2018-05-02T09:05:45.248Z,286.88
2018-05-02T09:06:45.214Z,270.00
2018-05-02T09:07:45.176Z,241.88
2018-05-02T09:08:45.139Z,230.63
2018-05-02T09:09:45.103Z,213.75
2018-05-02T09:10:45.066Z,196.88
2018-05-02T09:11:45.031Z,180.00
2018-05-02T09:12:44.992Z,174.38
2018-05-02T09:13:44.952Z,174.38
2018-05-02T09:14:44.912Z,168.75
2018-05-02T09:15:44.875Z,168.75
2018-05-02T09:16:44.835Z,168.75
2018-05-02T09:17:44.795Z,168.75
2018-05-02T09:18:44.757Z,163.13
2018-05-02T09:19:44.717Z,157.50
2018-05-02T09:20:44.676Z,157.50
2018-05-02T09:21:44.636Z,151.88
2018-05-02T09:22:44.596Z,151.88
2018-05-02T09:23:44.556Z,146.25
2018-05-02T09:24:44.520Z,140.63
2018-05-02T09:25:44.510Z,140.63
2018-05-02T09:26:44.436Z,140.63
2018-05-02T09:27:44.392Z,135.00
2018-05-02T09:28:44.400Z,129.38
2018-05-02T09:29:44.309Z,135.00
2018-05-02T09:30:44.267Z,135.00
2018-05-02T09:31:44.230Z,140.63
2018-05-02T09:32:44.189Z,140.63
2018-05-02T09:33:44.144Z,135.00
2018-05-02T09:34:44.100Z,129.38
2018-05-02T09:35:44.091Z,129.38
2018-05-02T09:36:44.015Z,123.75
2018-05-02T09:37:43.974Z,118.13
2018-05-02T09:38:43.931Z,118.13
2018-05-02T09:39:43.890Z,123.75
2018-05-02T09:40:43.846Z,123.75
2018-05-02T09:41:43.803Z,123.75
2018-05-02T09:42:43.761Z,123.75
2018-05-02T09:43:43.718Z,123.75
2018-05-02T09:44:43.678Z,123.75
2018-05-02T09:45:43.631Z,123.75
2018-05-02T09:46:43.591Z,129.38
2018-05-02T09:47:43.547Z,123.75
2018-05-02T09:48:43.503Z,123.75
2018-05-02T09:49:43.459Z,123.75
2018-05-02T09:50:43.418Z,123.75
2018-05-02T09:51:43.375Z,123.75
2018-05-02T09:52:43.330Z,129.38
2018-05-02T09:53:43.287Z,135.00
2018-05-02T09:54:43.245Z,135.00
2018-05-02T09:55:43.200Z,140.63
2018-05-02T09:56:43.163Z,146.25
2018-05-02T09:57:43.115Z,157.50
2018-05-02T09:58:43.071Z,163.13
2018-05-02T09:59:43.028Z,163.13
2018-05-02T10:00:42.984Z,157.50
2018-05-02T10:01:42.940Z,163.13
2018-05-02T10:02:42.897Z,163.13
2018-05-02T10:03:42.854Z,168.75
2018-05-02T10:04:42.811Z,168.75
2018-05-02T10:05:42.767Z,168.75
2018-05-02T10:06:42.723Z,157.50
2018-05-02T10:07:42.681Z,146.25
2018-05-02T10:08:42.646Z,146.25
2018-05-02T10:09:42.594Z,146.25
2018-05-02T10:10:42.554Z,146.25
2018-05-02T10:11:42.508Z,157.50
2018-05-02T10:12:42.501Z,168.75
2018-05-02T10:13:42.423Z,174.38
2018-05-02T10:14:42.378Z,174.38
2018-05-02T10:15:42.336Z,174.38
2018-05-02T10:16:42.292Z,168.75
2018-05-02T10:17:42.248Z,157.50
2018-05-02T10:18:42.206Z,157.50
2018-05-02T10:19:42.162Z,157.50
2018-05-02T10:20:42.118Z,157.50
2018-05-02T10:21:42.081Z,157.50
2018-05-02T10:22:42.035Z,151.88
2018-05-02T10:23:41.990Z,146.25
2018-05-02T10:24:41.947Z,151.88
2018-05-02T10:25:41.903Z,151.88
2018-05-02T10:26:41.863Z,151.88
2018-05-02T10:27:41.818Z,151.88
2018-05-02T10:28:41.774Z,151.88
2018-05-02T10:29:41.735Z,157.50
2018-05-02T10:30:41.687Z,163.13
2018-05-02T10:31:41.645Z,174.38
2018-05-02T10:32:41.605Z,174.38
2018-05-02T10:33:41.558Z,180.00
2018-05-02T10:34:41.515Z,180.00
2018-05-02T10:35:41.477Z,180.00
2018-05-02T10:36:41.428Z,180.00
2018-05-02T10:37:41.385Z,185.63
2018-05-02T10:38:41.342Z,185.63
2018-05-02T10:39:41.298Z,191.25
2018-05-02T10:40:41.255Z,196.88
2018-05-02T10:41:41.210Z,208.13
2018-05-02T10:42:41.169Z,208.13
2018-05-02T10:43:41.125Z,213.75
2018-05-02T10:44:41.083Z,213.75
2018-05-02T10:45:41.039Z,213.75
2018-05-02T10:46:40.996Z,208.13
2018-05-02T10:47:40.953Z,208.13
2018-05-02T10:48:40.909Z,213.75
2018-05-02T10:49:40.866Z,219.38
2018-05-02T10:50:40.824Z,225.00
2018-05-02T10:51:40.780Z,225.00
2018-05-02T10:52:40.736Z,219.38
2018-05-02T10:53:40.694Z,219.38
2018-05-02T10:54:40.651Z,219.38
2018-05-02T10:55:40.609Z,225.00
2018-05-02T10:56:40.566Z,225.00
2018-05-02T10:57:40.537Z,213.75
2018-05-02T10:58:40.479Z,202.50
2018-05-02T10:59:40.442Z,191.25
2018-05-02T11:00:40.393Z,185.63
2018-05-02T11:01:40.351Z,174.38
2018-05-02T11:02:40.307Z,163.13
2018-05-02T11:03:40.266Z,151.88
2018-05-02T11:04:40.223Z,151.88
2018-05-02T11:05:40.184Z,151.88
2018-05-02T11:06:40.135Z,157.50
2018-05-02T11:07:40.094Z,151.88
2018-05-02T11:08:40.049Z,146.25
2018-05-02T11:09:40.008Z,140.63
2018-05-02T11:10:39.969Z,135.00
2018-05-02T11:11:39.923Z,129.38
2018-05-02T11:12:39.879Z,129.38
2018-05-02T11:13:39.841Z,129.38
2018-05-02T11:14:39.796Z,135.00
2018-05-02T11:15:39.751Z,135.00
2018-05-02T11:16:39.711Z,140.63
2018-05-02T11:17:39.665Z,146.25
2018-05-02T11:18:39.622Z,168.75
2018-05-02T11:19:39.580Z,185.63
2018-05-02T11:20:39.535Z,191.25
2018-05-02T11:21:39.493Z,191.25
2018-05-02T11:22:39.450Z,191.25
2018-05-02T11:23:39.406Z,185.63
2018-05-02T11:24:39.364Z,180.00
2018-05-02T11:25:39.321Z,180.00
2018-05-02T11:26:39.278Z,180.00
2018-05-02T11:27:39.239Z,174.38
2018-05-02T11:28:39.192Z,174.38
2018-05-02T11:29:39.150Z,174.38
2018-05-02T11:30:39.107Z,180.00
2018-05-02T11:31:39.063Z,185.63
2018-05-02T11:32:39.021Z,180.00
2018-05-02T11:33:38.981Z,180.00
2018-05-02T11:34:38.946Z,163.13
2018-05-02T11:35:38.892Z,157.50
2018-05-02T11:36:38.850Z,151.88
2018-05-02T11:37:38.811Z,146.25
2018-05-02T11:38:38.764Z,140.63
2018-05-02T11:39:38.722Z,140.63
2018-05-02T11:40:38.679Z,146.25
2018-05-02T11:41:38.635Z,151.88
2018-05-02T11:42:38.592Z,157.50
2018-05-02T11:43:38.549Z,157.50
2018-05-02T11:44:38.506Z,146.25
2018-05-02T11:45:38.462Z,140.63
2018-05-02T11:46:38.420Z,140.63
2018-05-02T11:47:38.377Z,140.63
2018-05-02T11:48:38.333Z,135.00
2018-05-02T11:49:38.290Z,129.38
2018-05-02T11:50:38.247Z,129.38
2018-05-02T11:51:38.203Z,129.38
2018-05-02T11:52:38.161Z,129.38
2018-05-02T11:53:38.123Z,129.38
2018-05-02T11:54:38.075Z,129.38
2018-05-02T11:55:38.031Z,129.38
2018-05-02T11:56:37.987Z,135.00
2018-05-02T11:57:37.946Z,135.00
2018-05-02T11:58:37.951Z,135.00
2018-05-02T11:59:37.857Z,129.38
2018-05-02T12:00:37.815Z,123.75
2018-05-02T12:01:37.771Z,118.13
2018-05-02T12:02:37.799Z,112.50
2018-05-02T12:03:37.764Z,106.88
2018-05-02T12:04:37.641Z,112.50
2018-05-02T12:05:37.598Z,112.50
2018-05-02T12:06:37.558Z,118.13
2018-05-02T12:07:37.511Z,118.13
2018-05-02T12:08:37.467Z,118.13
2018-05-02T12:09:37.424Z,118.13
2018-05-02T12:10:37.382Z,123.75
2018-05-02T12:11:37.337Z,123.75
2018-05-02T12:12:37.293Z,123.75
2018-05-02T12:13:37.250Z,123.75
2018-05-02T12:14:37.207Z,123.75
2018-05-02T12:15:37.165Z,123.75
2018-05-02T12:16:37.119Z,129.38
2018-05-02T12:17:37.081Z,135.00
2018-05-02T12:18:37.032Z,135.00
2018-05-02T12:19:36.989Z,140.63
2018-05-02T12:20:36.946Z,146.25
2018-05-02T12:21:36.903Z,146.25
2018-05-02T12:22:36.859Z,157.50
2018-05-02T12:23:36.816Z,157.50
2018-05-02T12:24:36.772Z,157.50
2018-05-02T12:25:36.728Z,157.50
2018-05-02T12:26:36.685Z,151.88
2018-05-02T12:27:36.642Z,146.25
2018-05-02T12:28:36.597Z,135.00
2018-05-02T12:29:36.554Z,129.38
2018-05-02T12:30:36.511Z,123.75
2018-05-02T12:31:36.467Z,123.75
2018-05-02T12:32:36.425Z,123.75
2018-05-02T12:33:36.383Z,123.75
2018-05-02T12:34:36.337Z,123.75
2018-05-02T12:35:36.300Z,118.13
2018-05-02T12:36:36.249Z,118.13
2018-05-02T12:37:36.205Z,112.50
2018-05-02T12:38:36.162Z,112.50
2018-05-02T12:39:36.120Z,106.88
2018-05-02T12:40:36.075Z,106.88
2018-05-02T12:41:36.032Z,106.88
2018-05-02T12:42:35.988Z,106.88